createdAt,value
2022-09-05T00:15:14.641Z,1359.95142
2022-09-05T00:31:45.630Z,2764.49121
2022-09-05T00:46:54.676Z,2695.66992
2022-09-05T01:01:57.089Z,1990.0072
2022-09-05T01:16:59.530Z,1179.65845
2022-09-05T01:32:01.842Z,993.54962
2022-09-05T01:47:04.219Z,778.36133
2022-09-05T02:02:08.926Z,472.05725
2022-09-05T02:17:27.323Z,157.02931
2022-09-05T02:32:51.640Z,28.11019
2022-09-05T02:47:54.191Z,3.87727
2022-09-05T03:02:56.465Z,0
2022-09-05T03:18:19.936Z,0
2022-09-05T03:33:23.544Z,0
2022-09-05T03:48:53.918Z,0
2022-09-05T04:08:13.520Z,0
2022-09-05T04:23:35.022Z,0
2022-09-05T04:38:37.252Z,0
2022-09-05T04:53:39.410Z,0
2022-09-05T05:08:41.761Z,0
2022-09-05T05:23:44.037Z,0
2022-09-05T05:38:46.392Z,0
2022-09-05T05:53:51.767Z,0
2022-09-05T06:12:40.105Z,0
2022-09-05T06:30:05.751Z,0
2022-09-05T06:45:27.867Z,0
2022-09-05T07:00:31.200Z,0
2022-09-05T07:15:33.491Z,0
2022-09-05T07:30:35.841Z,0
2022-09-05T07:45:38.129Z,0
2022-09-05T08:00:44.939Z,0
2022-09-05T08:16:13.301Z,0
2022-09-05T08:31:16.442Z,0
2022-09-05T08:46:46.800Z,0
2022-09-05T09:02:37.408Z,0
2022-09-05T09:17:50.548Z,0
2022-09-05T09:32:56.318Z,0
2022-09-05T09:48:01.078Z,0
2022-09-05T10:06:20.099Z,0
2022-09-05T10:26:01.809Z,0
2022-09-05T10:41:20.059Z,0
2022-09-05T10:56:26.093Z,0
2022-09-05T11:11:35.226Z,0
2022-09-05T11:26:37.652Z,0
2022-09-05T11:41:39.981Z,0
2022-09-05T11:56:45.889Z,0
2022-09-05T12:11:48.433Z,0
2022-09-05T12:27:38.513Z,0
2022-09-05T12:42:54.784Z,0.96932
2022-09-05T13:02:57.934Z,9.69317
2022-09-05T13:18:13.116Z,88.20782
2022-09-05T13:38:05.336Z,200.64856
2022-09-05T13:53:28.945Z,400.32782
2022-09-05T14:08:38.276Z,593.22186
2022-09-05T14:23:40.635Z,1909.55396
2022-09-05T14:38:43.020Z,3066.91821
2022-09-05T14:54:01.420Z,2203.25684
2022-09-05T15:11:24.047Z,28127.63281
2022-09-05T15:27:22.143Z,31736.39844
2022-09-05T15:42:24.632Z,5465.00781
2022-09-05T15:57:27.226Z,4543.1875
2022-09-05T16:12:30.137Z,4858.21533
2022-09-05T16:27:32.934Z,4942.5459
2022-09-05T16:42:46.402Z,3419.74951
2022-09-05T16:57:50.023Z,1929.90955
2022-09-05T17:12:53.676Z,5467.91553
2022-09-05T17:29:24.241Z,5460.16113
2022-09-05T17:44:40.082Z,5773.25049
2022-09-05T17:59:44.630Z,6806.54199
2022-09-05T18:14:50.112Z,1566.41577
2022-09-05T18:29:57.975Z,6625.27979
2022-09-05T18:45:01.816Z,1977.40613
2022-09-05T19:00:04.225Z,1768.03369
2022-09-05T19:15:06.886Z,6694.10107
2022-09-05T19:36:44.679Z,6567.12061
2022-09-05T19:52:21.217Z,6711.54883
2022-09-05T20:07:23.564Z,7797.18359
2022-09-05T20:22:48.606Z,7372.62305
2022-09-05T20:43:19.663Z,6443.04834
2022-09-05T20:58:37.186Z,5749.98682
2022-09-05T21:13:51.978Z,3832.67822
2022-09-05T21:28:55.521Z,5758.71045
2022-09-05T21:47:33.879Z,6833.68311
2022-09-05T22:02:48.317Z,9072.80469
2022-09-05T22:17:50.771Z,10744.87598
2022-09-05T22:32:52.997Z,12524.54102
2022-09-05T22:47:55.199Z,13753.63477
2022-09-05T23:02:57.697Z,14768.50977
2022-09-05T23:17:59.910Z,14570.76855
2022-09-05T23:33:02.076Z,14320.68555
2022-09-05T23:48:04.237Z,10754.56934
